RYR4XC EGSS-EHEH
Flight info
| Callsign | RYR4XC |
|---|---|
| Flight time | 0h 46m |
| Altitude | 19000 |
| Route | CLN P44 RATLO M197 REDFA |
| Aircraft | B738/M-SDE3FGILRWY/SB1 |
Departure
| Time | 2026-05-05 16:18 |
|---|---|
| Airport | London Stansted Airport (EGSS) |
Arrival
| Time | 2026-05-05 17:04 |
|---|---|
| Airport | Eindhoven Airport (EHEH) |
| Time | Latitude | Longitude | Altitude | Speed | Heading |
|---|---|---|---|---|---|
| 2026-05-05 15:48 | 51.89263 | 0.25916 | 348 ft | 0 kts | 43° |
| 2026-05-05 16:07 | 51.89261 | 0.25914 | 355 ft | 1 kts | 43° |
| 2026-05-05 16:07 | 51.89248 | 0.25894 | 358 ft | 3 kts | 43° |
| 2026-05-05 16:07 | 51.89234 | 0.25875 | 357 ft | 3 kts | 17° |
| 2026-05-05 16:08 | 51.89220 | 0.25874 | 357 ft | 3 kts | 321° |
| 2026-05-05 16:08 | 51.89212 | 0.25886 | 357 ft | 2 kts | 313° |
| 2026-05-05 16:08 | 51.89202 | 0.25903 | 348 ft | 1 kts | 313° |
| 2026-05-05 16:08 | 51.89201 | 0.25904 | 348 ft | 0 kts | 313° |
| 2026-05-05 16:11 | 51.89292 | 0.25746 | 348 ft | 10 kts | 313° |
| 2026-05-05 16:12 | 51.89340 | 0.25664 | 351 ft | 11 kts | 313° |
| 2026-05-05 16:12 | 51.89306 | 0.25473 | 350 ft | 11 kts | 223° |
| 2026-05-05 16:13 | 51.89084 | 0.25141 | 352 ft | 18 kts | 223° |
| 2026-05-05 16:13 | 51.88995 | 0.25008 | 350 ft | 17 kts | 223° |
| 2026-05-05 16:13 | 51.88909 | 0.24879 | 351 ft | 17 kts | 223° |
| 2026-05-05 16:14 | 51.88747 | 0.24635 | 348 ft | 15 kts | 222° |
| 2026-05-05 16:14 | 51.88576 | 0.24379 | 350 ft | 20 kts | 223° |
| 2026-05-05 16:15 | 51.88364 | 0.24062 | 348 ft | 20 kts | 223° |
| 2026-05-05 16:15 | 51.88166 | 0.23764 | 355 ft | 19 kts | 223° |
| 2026-05-05 16:16 | 51.87950 | 0.23442 | 355 ft | 23 kts | 224° |
| 2026-05-05 16:16 | 51.87731 | 0.23096 | 353 ft | 14 kts | 247° |
| 2026-05-05 16:17 | 51.87831 | 0.22861 | 350 ft | 14 kts | 313° |
| 2026-05-05 16:17 | 51.87911 | 0.22720 | 337 ft | 17 kts | 312° |
| 2026-05-05 16:18 | 51.88077 | 0.22845 | 338 ft | 54 kts | 43° |
| 2026-05-05 16:18 | 51.88531 | 0.23526 | 337 ft | 121 kts | 42° |
| 2026-05-05 16:18 | 51.90075 | 0.25820 | 1304 ft | 156 kts | 41° |
| 2026-05-05 16:19 | 51.90841 | 0.27014 | 2102 ft | 158 kts | 48° |
| 2026-05-05 16:19 | 51.91469 | 0.28669 | 2386 ft | 189 kts | 67° |
| 2026-05-05 16:19 | 51.91527 | 0.32371 | 3157 ft | 211 kts | 109° |
| 2026-05-05 16:20 | 51.90072 | 0.37130 | 3765 ft | 257 kts | 114° |
| 2026-05-05 16:20 | 51.88473 | 0.42452 | 5214 ft | 266 kts | 114° |
| 2026-05-05 16:21 | 51.86858 | 0.47922 | 6729 ft | 273 kts | 114° |
| 2026-05-05 16:22 | 51.84335 | 0.56508 | 8895 ft | 289 kts | 114° |
| 2026-05-05 16:22 | 51.83012 | 0.62671 | 10344 ft | 301 kts | 96° |
| 2026-05-05 16:23 | 51.83128 | 0.69885 | 11073 ft | 335 kts | 85° |
| 2026-05-05 16:23 | 51.83306 | 0.73663 | 11834 ft | 339 kts | 85° |
| 2026-05-05 16:23 | 51.83623 | 0.81352 | 13456 ft | 346 kts | 86° |
| 2026-05-05 16:24 | 51.83771 | 0.85250 | 14253 ft | 350 kts | 86° |
| 2026-05-05 16:24 | 51.83918 | 0.89205 | 14963 ft | 355 kts | 86° |
| 2026-05-05 16:24 | 51.84213 | 0.97196 | 16661 ft | 356 kts | 86° |
| 2026-05-05 16:25 | 51.84359 | 1.01161 | 17740 ft | 350 kts | 86° |
| 2026-05-05 16:25 | 51.84643 | 1.08985 | 19450 ft | 349 kts | 87° |
| 2026-05-05 16:25 | 51.84783 | 1.12905 | 20138 ft | 353 kts | 86° |
| 2026-05-05 16:26 | 51.86217 | 1.20509 | 20602 ft | 353 kts | 71° |
| 2026-05-05 16:26 | 51.87736 | 1.27971 | 20921 ft | 347 kts | 74° |
| 2026-05-05 16:27 | 51.88464 | 1.31720 | 20941 ft | 351 kts | 73° |
| 2026-05-05 16:27 | 51.89201 | 1.35490 | 20938 ft | 351 kts | 73° |
| 2026-05-05 16:27 | 51.89944 | 1.39252 | 20932 ft | 350 kts | 73° |
| 2026-05-05 16:27 | 51.90689 | 1.42997 | 20933 ft | 349 kts | 72° |
| 2026-05-05 16:28 | 51.91436 | 1.46730 | 20947 ft | 348 kts | 73° |
| 2026-05-05 16:28 | 51.92182 | 1.50450 | 20944 ft | 347 kts | 74° |
| 2026-05-05 16:28 | 51.92926 | 1.54166 | 20943 ft | 347 kts | 73° |
| 2026-05-05 16:28 | 51.93670 | 1.57881 | 20941 ft | 347 kts | 74° |
| 2026-05-05 16:29 | 51.94415 | 1.61602 | 20949 ft | 347 kts | 73° |
| 2026-05-05 16:29 | 51.95157 | 1.65320 | 20949 ft | 347 kts | 74° |
| 2026-05-05 16:29 | 51.95902 | 1.69056 | 20948 ft | 348 kts | 74° |
| 2026-05-05 16:29 | 51.96645 | 1.72790 | 20950 ft | 349 kts | 73° |
| 2026-05-05 16:30 | 51.97389 | 1.76534 | 20942 ft | 349 kts | 73° |
| 2026-05-05 16:30 | 51.98133 | 1.80290 | 20944 ft | 350 kts | 74° |
| 2026-05-05 16:30 | 51.98878 | 1.84047 | 20952 ft | 350 kts | 74° |
| 2026-05-05 16:30 | 51.99620 | 1.87809 | 20948 ft | 350 kts | 74° |
| 2026-05-05 16:31 | 52.00361 | 1.91567 | 20946 ft | 350 kts | 73° |
| 2026-05-05 16:31 | 52.01101 | 1.95331 | 20944 ft | 350 kts | 72° |
| 2026-05-05 16:31 | 52.01841 | 1.99097 | 20948 ft | 350 kts | 73° |
| 2026-05-05 16:31 | 52.02578 | 2.02860 | 20944 ft | 350 kts | 74° |
| 2026-05-05 16:32 | 52.03314 | 2.06619 | 20937 ft | 350 kts | 74° |
| 2026-05-05 16:32 | 52.04049 | 2.10384 | 20939 ft | 350 kts | 74° |
| 2026-05-05 16:32 | 52.04783 | 2.14153 | 20958 ft | 350 kts | 75° |
| 2026-05-05 16:32 | 52.05515 | 2.17922 | 20946 ft | 350 kts | 75° |
| 2026-05-05 16:33 | 52.06248 | 2.21696 | 20952 ft | 350 kts | 75° |
| 2026-05-05 16:33 | 52.06980 | 2.25477 | 20941 ft | 351 kts | 75° |
| 2026-05-05 16:33 | 52.07712 | 2.29263 | 20949 ft | 351 kts | 73° |
| 2026-05-05 16:33 | 52.08443 | 2.33050 | 20956 ft | 351 kts | 74° |
| 2026-05-05 16:34 | 52.09175 | 2.36844 | 20936 ft | 352 kts | 75° |
| 2026-05-05 16:34 | 52.09904 | 2.40640 | 20942 ft | 352 kts | 74° |
| 2026-05-05 16:34 | 52.10627 | 2.44439 | 20941 ft | 351 kts | 77° |
| 2026-05-05 16:34 | 52.10942 | 2.48337 | 20942 ft | 347 kts | 95° |
| 2026-05-05 16:35 | 52.10551 | 2.52167 | 20932 ft | 344 kts | 110° |
| 2026-05-05 16:35 | 52.09650 | 2.55757 | 20954 ft | 342 kts | 116° |
| 2026-05-05 16:35 | 52.08660 | 2.59275 | 20947 ft | 342 kts | 117° |
| 2026-05-05 16:35 | 52.07649 | 2.62781 | 20937 ft | 342 kts | 117° |
| 2026-05-05 16:36 | 52.06641 | 2.66279 | 20946 ft | 342 kts | 116° |
| 2026-05-05 16:36 | 52.05636 | 2.69783 | 20927 ft | 343 kts | 116° |
| 2026-05-05 16:36 | 52.04649 | 2.73251 | 20941 ft | 342 kts | 116° |
| 2026-05-05 16:36 | 52.03655 | 2.76756 | 20936 ft | 342 kts | 117° |
| 2026-05-05 16:37 | 52.02660 | 2.80270 | 20921 ft | 342 kts | 116° |
| 2026-05-05 16:37 | 52.01669 | 2.83776 | 20927 ft | 342 kts | 117° |
| 2026-05-05 16:37 | 52.00679 | 2.87278 | 20926 ft | 342 kts | 115° |
| 2026-05-05 16:37 | 51.99689 | 2.90779 | 20939 ft | 341 kts | 116° |
| 2026-05-05 16:38 | 51.98701 | 2.94271 | 20937 ft | 340 kts | 116° |
| 2026-05-05 16:38 | 51.97714 | 2.97753 | 20921 ft | 340 kts | 116° |
| 2026-05-05 16:38 | 51.96725 | 3.01238 | 20921 ft | 340 kts | 115° |
| 2026-05-05 16:38 | 51.95736 | 3.04717 | 20929 ft | 340 kts | 115° |
| 2026-05-05 16:39 | 51.94747 | 3.08191 | 20931 ft | 340 kts | 116° |
| 2026-05-05 16:39 | 51.93758 | 3.11661 | 20930 ft | 340 kts | 116° |
| 2026-05-05 16:39 | 51.92766 | 3.15137 | 20919 ft | 340 kts | 116° |
| 2026-05-05 16:39 | 51.91773 | 3.18608 | 20926 ft | 340 kts | 115° |
| 2026-05-05 16:40 | 51.90777 | 3.22088 | 20936 ft | 340 kts | 116° |
| 2026-05-05 16:40 | 51.89780 | 3.25562 | 20933 ft | 341 kts | 116° |
| 2026-05-05 16:40 | 51.88783 | 3.29037 | 20935 ft | 340 kts | 116° |
| 2026-05-05 16:40 | 51.87782 | 3.32516 | 20907 ft | 341 kts | 116° |
| 2026-05-05 16:41 | 51.86782 | 3.35989 | 20914 ft | 340 kts | 116° |
| 2026-05-05 16:41 | 51.85781 | 3.39458 | 20922 ft | 340 kts | 116° |
| 2026-05-05 16:41 | 51.84778 | 3.42931 | 20895 ft | 341 kts | 116° |
| 2026-05-05 16:41 | 51.83776 | 3.46397 | 20915 ft | 340 kts | 116° |
| 2026-05-05 16:42 | 51.82773 | 3.49858 | 20900 ft | 340 kts | 116° |
| 2026-05-05 16:42 | 51.81766 | 3.53328 | 20900 ft | 341 kts | 116° |
| 2026-05-05 16:42 | 51.80759 | 3.56793 | 20908 ft | 341 kts | 117° |
| 2026-05-05 16:42 | 51.79752 | 3.60256 | 20904 ft | 341 kts | 116° |
| 2026-05-05 16:43 | 51.78747 | 3.63708 | 20691 ft | 339 kts | 116° |
| 2026-05-05 16:43 | 51.77747 | 3.67135 | 20437 ft | 336 kts | 116° |
| 2026-05-05 16:43 | 51.76756 | 3.70526 | 20176 ft | 332 kts | 116° |
| 2026-05-05 16:43 | 51.75777 | 3.73873 | 19929 ft | 328 kts | 116° |
| 2026-05-05 16:44 | 51.74805 | 3.77196 | 19685 ft | 326 kts | 117° |
| 2026-05-05 16:44 | 51.73839 | 3.80487 | 19438 ft | 324 kts | 117° |
| 2026-05-05 16:44 | 51.72876 | 3.83761 | 19191 ft | 323 kts | 117° |
| 2026-05-05 16:44 | 51.71914 | 3.87026 | 18953 ft | 322 kts | 116° |
| 2026-05-05 16:45 | 51.70950 | 3.90278 | 18713 ft | 321 kts | 116° |
| 2026-05-05 16:45 | 51.69987 | 3.93516 | 18475 ft | 319 kts | 116° |
| 2026-05-05 16:45 | 51.69032 | 3.96722 | 18238 ft | 315 kts | 116° |
| 2026-05-05 16:45 | 51.68087 | 3.99894 | 17970 ft | 313 kts | 116° |
| 2026-05-05 16:46 | 51.67149 | 4.03037 | 17695 ft | 310 kts | 116° |
| 2026-05-05 16:46 | 51.66218 | 4.06154 | 17425 ft | 308 kts | 116° |
| 2026-05-05 16:46 | 51.65293 | 4.09249 | 17158 ft | 306 kts | 116° |
| 2026-05-05 16:46 | 51.64371 | 4.12330 | 16904 ft | 304 kts | 116° |
| 2026-05-05 16:47 | 51.63454 | 4.15391 | 16631 ft | 303 kts | 115° |
| 2026-05-05 16:47 | 51.62539 | 4.18440 | 16371 ft | 302 kts | 115° |
| 2026-05-05 16:47 | 51.61625 | 4.21484 | 16125 ft | 301 kts | 115° |
| 2026-05-05 16:47 | 51.60714 | 4.24511 | 15875 ft | 301 kts | 115° |
| 2026-05-05 16:48 | 51.59802 | 4.27540 | 15626 ft | 300 kts | 115° |
| 2026-05-05 16:48 | 51.58899 | 4.30534 | 15419 ft | 295 kts | 115° |
| 2026-05-05 16:48 | 51.58008 | 4.33488 | 15146 ft | 292 kts | 115° |
| 2026-05-05 16:48 | 51.57123 | 4.36417 | 14871 ft | 291 kts | 115° |
| 2026-05-05 16:49 | 51.56239 | 4.39341 | 14577 ft | 291 kts | 115° |
| 2026-05-05 16:49 | 51.55357 | 4.42256 | 14281 ft | 290 kts | 114° |
| 2026-05-05 16:49 | 51.54473 | 4.45171 | 13982 ft | 290 kts | 114° |
| 2026-05-05 16:49 | 51.53590 | 4.48076 | 13682 ft | 290 kts | 114° |
| 2026-05-05 16:50 | 51.52736 | 4.50999 | 13352 ft | 288 kts | 107° |
| 2026-05-05 16:50 | 51.52524 | 4.54103 | 13077 ft | 283 kts | 81° |
| 2026-05-05 16:50 | 51.53119 | 4.57084 | 12826 ft | 281 kts | 61° |
| 2026-05-05 16:50 | 51.54209 | 4.59747 | 12580 ft | 283 kts | 54° |
| 2026-05-05 16:51 | 51.55372 | 4.62319 | 12326 ft | 285 kts | 54° |
| 2026-05-05 16:51 | 51.56536 | 4.64865 | 12081 ft | 287 kts | 54° |
| 2026-05-05 16:51 | 51.57720 | 4.67469 | 11846 ft | 284 kts | 54° |
| 2026-05-05 16:51 | 51.58864 | 4.70006 | 11559 ft | 284 kts | 54° |
| 2026-05-05 16:52 | 51.60035 | 4.72621 | 11253 ft | 285 kts | 54° |
| 2026-05-05 16:52 | 51.61177 | 4.75181 | 10940 ft | 285 kts | 55° |
| 2026-05-05 16:52 | 51.62332 | 4.77780 | 10646 ft | 285 kts | 54° |
| 2026-05-05 16:52 | 51.63481 | 4.80372 | 10349 ft | 285 kts | 55° |
| 2026-05-05 16:53 | 51.64630 | 4.82967 | 10055 ft | 285 kts | 55° |
| 2026-05-05 16:53 | 51.65780 | 4.85567 | 9773 ft | 285 kts | 55° |
| 2026-05-05 16:53 | 51.66932 | 4.88176 | 9434 ft | 286 kts | 55° |
| 2026-05-05 16:53 | 51.68000 | 4.90878 | 9085 ft | 287 kts | 68° |
| 2026-05-05 16:54 | 51.68295 | 4.94014 | 8822 ft | 284 kts | 95° |
| 2026-05-05 16:54 | 51.67786 | 4.97072 | 8517 ft | 285 kts | 113° |
| 2026-05-05 16:54 | 51.66952 | 4.99966 | 8206 ft | 284 kts | 115° |
| 2026-05-05 16:54 | 51.66111 | 5.02837 | 7895 ft | 283 kts | 115° |
| 2026-05-05 16:55 | 51.65281 | 5.05708 | 7617 ft | 282 kts | 114° |
| 2026-05-05 16:55 | 51.64461 | 5.08571 | 7322 ft | 282 kts | 114° |
| 2026-05-05 16:55 | 51.63659 | 5.11451 | 7014 ft | 282 kts | 110° |
| 2026-05-05 16:55 | 51.63071 | 5.14446 | 6673 ft | 277 kts | 104° |
| 2026-05-05 16:56 | 51.62274 | 5.17194 | 6348 ft | 270 kts | 130° |
| 2026-05-05 16:56 | 51.60763 | 5.18875 | 6077 ft | 264 kts | 161° |
| 2026-05-05 16:56 | 51.58967 | 5.19339 | 5829 ft | 264 kts | 181° |
| 2026-05-05 16:56 | 51.57135 | 5.18962 | 5568 ft | 266 kts | 191° |
| 2026-05-05 16:57 | 51.55316 | 5.18379 | 5324 ft | 269 kts | 191° |
| 2026-05-05 16:57 | 51.53471 | 5.17806 | 5047 ft | 271 kts | 186° |
| 2026-05-05 16:57 | 51.51604 | 5.17338 | 4780 ft | 272 kts | 189° |
| 2026-05-05 16:57 | 51.49740 | 5.16771 | 4485 ft | 274 kts | 189° |
| 2026-05-05 16:58 | 51.47877 | 5.16222 | 4346 ft | 269 kts | 189° |
| 2026-05-05 16:58 | 51.46060 | 5.15701 | 4204 ft | 261 kts | 188° |
| 2026-05-05 16:58 | 51.44319 | 5.15210 | 4056 ft | 247 kts | 188° |
| 2026-05-05 16:58 | 51.42658 | 5.14749 | 3950 ft | 237 kts | 188° |
| 2026-05-05 16:59 | 51.41060 | 5.14305 | 3844 ft | 229 kts | 188° |
| 2026-05-05 16:59 | 51.39501 | 5.13888 | 3774 ft | 225 kts | 184° |
| 2026-05-05 16:59 | 51.37993 | 5.14309 | 3674 ft | 219 kts | 145° |
| 2026-05-05 16:59 | 51.36916 | 5.15929 | 3495 ft | 213 kts | 124° |
| 2026-05-05 17:00 | 51.36015 | 5.17816 | 3241 ft | 213 kts | 123° |
| 2026-05-05 17:00 | 51.35157 | 5.19700 | 2987 ft | 205 kts | 121° |
| 2026-05-05 17:00 | 51.34365 | 5.21487 | 2768 ft | 195 kts | 120° |
| 2026-05-05 17:00 | 51.33884 | 5.23396 | 2579 ft | 177 kts | 82° |
| 2026-05-05 17:01 | 51.34378 | 5.24987 | 2499 ft | 156 kts | 40° |
| 2026-05-05 17:01 | 51.35200 | 5.26118 | 2285 ft | 152 kts | 41° |
| 2026-05-05 17:01 | 51.35983 | 5.27212 | 2114 ft | 152 kts | 38° |
| 2026-05-05 17:01 | 51.36828 | 5.28236 | 1906 ft | 153 kts | 35° |
| 2026-05-05 17:02 | 51.37691 | 5.29220 | 1699 ft | 150 kts | 34° |
| 2026-05-05 17:02 | 51.38536 | 5.30171 | 1484 ft | 145 kts | 34° |
| 2026-05-05 17:02 | 51.39337 | 5.31071 | 1319 ft | 134 kts | 34° |
| 2026-05-05 17:02 | 51.40104 | 5.31934 | 1105 ft | 136 kts | 35° |
| 2026-05-05 17:03 | 51.40878 | 5.32805 | 901 ft | 135 kts | 35° |
| 2026-05-05 17:03 | 51.41631 | 5.33679 | 710 ft | 131 kts | 35° |
| 2026-05-05 17:03 | 51.42384 | 5.34506 | 537 ft | 134 kts | 33° |
| 2026-05-05 17:03 | 51.43160 | 5.35371 | 358 ft | 135 kts | 35° |
| 2026-05-05 17:04 | 51.43942 | 5.36249 | 166 ft | 138 kts | 34° |
| 2026-05-05 17:04 | 51.44709 | 5.37110 | 76 ft | 126 kts | 35° |
| 2026-05-05 17:04 | 51.45311 | 5.37785 | 68 ft | 84 kts | 35° |
| 2026-05-05 17:04 | 51.45639 | 5.38151 | 76 ft | 30 kts | 33° |
| 2026-05-05 17:05 | 51.45734 | 5.38255 | 71 ft | 24 kts | 34° |
| 2026-05-05 17:05 | 51.45840 | 5.38369 | 67 ft | 8 kts | 33° |
| 2026-05-05 17:05 | 51.45883 | 5.38415 | 74 ft | 7 kts | 34° |
| 2026-05-05 17:05 | 51.45912 | 5.38475 | 76 ft | 7 kts | 72° |
| 2026-05-05 17:06 | 51.45896 | 5.38545 | 72 ft | 8 kts | 124° |
| 2026-05-05 17:06 | 51.45861 | 5.38625 | 67 ft | 9 kts | 126° |
| 2026-05-05 17:06 | 51.45822 | 5.38713 | 74 ft | 10 kts | 125° |
| 2026-05-05 17:06 | 51.45788 | 5.38785 | 74 ft | 7 kts | 136° |
| 2026-05-05 17:07 | 51.45744 | 5.38779 | 71 ft | 7 kts | 212° |
| 2026-05-05 17:07 | 51.45709 | 5.38799 | 66 ft | 6 kts | 128° |
| 2026-05-05 17:07 | 51.45687 | 5.38851 | 70 ft | 2 kts | 124° |
| 2026-05-05 17:07 | 51.45682 | 5.38862 | 65 ft | 0 kts | 124° |